sensor_id;sensor_type;location;lat;lon;timestamp;temperature;humidity
10964;DHT22;5534;48.784;9.190;2023-03-01T00:01:36;4.10;99.90
10964;DHT22;5534;48.784;9.190;2023-03-01T00:04:02;4.00;99.90
10964;DHT22;5534;48.784;9.190;2023-03-01T00:06:28;4.00;99.90
10964;DHT22;5534;48.784;9.190;2023-03-01T00:08:54;4.00;99.90
10964;DHT22;5534;48.784;9.190;2023-03-01T00:11:24;3.90;99.90
10964;DHT22;5534;48.784;9.190;2023-03-01T00:13:53;3.90;99.90
10964;DHT22;5534;48.784;9.190;2023-03-01T00:16:30;4.00;99.90
10964;DHT22;5534;48.784;9.190;2023-03-01T00:18:57;3.90;99.90
10964;DHT22;5534;48.784;9.190;2023-03-01T00:21:24;3.90;99.90
10964;DHT22;5534;48.784;9.190;2023-03-01T00:23:53;4.00;99.90
10964;DHT22;5534;48.784;9.190;2023-03-01T00:26:24;3.80;99.90
10964;DHT22;5534;48.784;9.190;2023-03-01T00:28:50;3.80;99.90
10964;DHT22;5534;48.784;9.190;2023-03-01T00:31:19;3.60;99.90
10964;DHT22;5534;48.784;9.190;2023-03-01T00:33:45;3.40;99.90
10964;DHT22;5534;48.784;9.190;2023-03-01T00:36:13;3.50;99.90
10964;DHT22;5534;48.784;9.190;2023-03-01T00:38:44;3.40;99.90
10964;DHT22;5534;48.784;9.190;2023-03-01T00:41:12;3.50;99.90
10964;DHT22;5534;48.784;9.190;2023-03-01T00:43:38;3.40;99.90
10964;DHT22;5534;48.784;9.190;2023-03-01T00:46:08;3.40;99.90
10964;DHT22;5534;48.784;9.190;2023-03-01T00:48:34;3.40;99.90
10964;DHT22;5534;48.784;9.190;2023-03-01T00:51:10;3.40;99.90
10964;DHT22;5534;48.784;9.190;2023-03-01T00:53:36;3.40;99.90
10964;DHT22;5534;48.784;9.190;2023-03-01T00:56:06;3.50;99.90
10964;DHT22;5534;48.784;9.190;2023-03-01T00:58:33;3.30;99.90
10964;DHT22;5534;48.784;9.190;2023-03-01T01:00:59;3.10;99.90
10964;DHT22;5534;48.784;9.190;2023-03-01T01:03:25;3.20;99.90
10964;DHT22;5534;48.784;9.190;2023-03-01T01:05:52;3.20;99.90
10964;DHT22;5534;48.784;9.190;2023-03-01T01:08:19;3.20;99.90
10964;DHT22;5534;48.784;9.190;2023-03-01T01:10:46;3.10;99.90
10964;DHT22;5534;48.784;9.190;2023-03-01T01:13:12;3.40;99.90
10964;DHT22;5534;48.784;9.190;2023-03-01T01:15:38;3.40;99.90
10964;DHT22;5534;48.784;9.190;2023-03-01T01:18:04;3.50;99.90
10964;DHT22;5534;48.784;9.190;2023-03-01T01:20:30;3.60;99.90
10964;DHT22;5534;48.784;9.190;2023-03-01T01:22:56;3.60;99.90
10964;DHT22;5534;48.784;9.190;2023-03-01T01:25:22;3.70;99.90
10964;DHT22;5534;48.784;9.190;2023-03-01T01:27:51;3.60;99.90
10964;DHT22;5534;48.784;9.190;2023-03-01T01:30:17;3.70;99.90
10964;DHT22;5534;48.784;9.190;2023-03-01T01:32:43;3.80;99.90
10964;DHT22;5534;48.784;9.190;2023-03-01T01:35:08;3.80;99.90
10964;DHT22;5534;48.784;9.190;2023-03-01T01:37:34;3.90;99.90
10964;DHT22;5534;48.784;9.190;2023-03-01T01:40:01;3.60;99.90
10964;DHT22;5534;48.784;9.190;2023-03-01T01:42:31;3.60;99.90
10964;DHT22;5534;48.784;9.190;2023-03-01T01:47:56;3.50;99.90
10964;DHT22;5534;48.784;9.190;2023-03-01T01:50:23;3.40;99.90
10964;DHT22;5534;48.784;9.190;2023-03-01T01:52:50;3.50;99.90
10964;DHT22;5534;48.784;9.190;2023-03-01T01:55:23;3.50;99.90
10964;DHT22;5534;48.784;9.190;2023-03-01T01:57:58;3.40;99.90
10964;DHT22;5534;48.784;9.190;2023-03-01T02:00:29;3.50;99.90
10964;DHT22;5534;48.784;9.190;2023-03-01T02:02:57;3.50;99.90
10964;DHT22;5534;48.784;9.190;2023-03-01T02:05:47;3.20;99.90
10964;DHT22;5534;48.784;9.190;2023-03-01T02:08:18;3.40;99.90
10964;DHT22;5534;48.784;9.190;2023-03-01T02:10:45;3.50;99.90
10964;DHT22;5534;48.784;9.190;2023-03-01T02:13:12;3.50;99.90
10964;DHT22;5534;48.784;9.190;2023-03-01T02:15:39;3.60;99.90
10964;DHT22;5534;48.784;9.190;2023-03-01T02:18:06;3.70;99.90
10964;DHT22;5534;48.784;9.190;2023-03-01T02:23:09;3.70;99.90
10964;DHT22;5534;48.784;9.190;2023-03-01T02:28:31;3.60;99.90
10964;DHT22;5534;48.784;9.190;2023-03-01T02:30:57;3.70;99.90
10964;DHT22;5534;48.784;9.190;2023-03-01T02:33:41;3.70;99.90
10964;DHT22;5534;48.784;9.190;2023-03-01T02:36:12;3.90;99.90
10964;DHT22;5534;48.784;9.190;2023-03-01T02:38:41;3.90;99.90
10964;DHT22;5534;48.784;9.190;2023-03-01T02:41:08;3.70;99.90
10964;DHT22;5534;48.784;9.190;2023-03-01T02:43:36;3.40;99.90
10964;DHT22;5534;48.784;9.190;2023-03-01T02:46:12;3.50;99.90
10964;DHT22;5534;48.784;9.190;2023-03-01T02:48:48;3.70;99.90
10964;DHT22;5534;48.784;9.190;2023-03-01T02:56:48;3.80;99.90
10964;DHT22;5534;48.784;9.190;2023-03-01T02:59:17;3.90;99.90
10964;DHT22;5534;48.784;9.190;2023-03-01T03:01:44;3.90;99.90
10964;DHT22;5534;48.784;9.190;2023-03-01T03:04:13;3.80;99.90
10964;DHT22;5534;48.784;9.190;2023-03-01T03:06:46;3.90;99.90
10964;DHT22;5534;48.784;9.190;2023-03-01T03:09:12;3.80;99.90
10964;DHT22;5534;48.784;9.190;2023-03-01T03:11:38;3.90;99.90
10964;DHT22;5534;48.784;9.190;2023-03-01T03:14:12;3.90;99.90
10964;DHT22;5534;48.784;9.190;2023-03-01T03:16:40;3.80;99.90
10964;DHT22;5534;48.784;9.190;2023-03-01T03:19:06;3.80;99.90
10964;DHT22;5534;48.784;9.190;2023-03-01T03:21:33;3.70;99.90
10964;DHT22;5534;48.784;9.190;2023-03-01T03:23:59;3.80;99.90
10964;DHT22;5534;48.784;9.190;2023-03-01T03:26:25;3.80;99.90
10964;DHT22;5534;48.784;9.190;2023-03-01T03:28:50;3.90;99.90
10964;DHT22;5534;48.784;9.190;2023-03-01T03:31:16;3.90;99.90
10964;DHT22;5534;48.784;9.190;2023-03-01T03:33:42;3.90;99.90
10964;DHT22;5534;48.784;9.190;2023-03-01T03:36:08;3.90;99.90
10964;DHT22;5534;48.784;9.190;2023-03-01T03:38:39;3.90;99.90
10964;DHT22;5534;48.784;9.190;2023-03-01T03:41:07;3.90;99.90
10964;DHT22;5534;48.784;9.190;2023-03-01T03:43:35;3.90;99.90
10964;DHT22;5534;48.784;9.190;2023-03-01T03:46:02;3.80;99.90
10964;DHT22;5534;48.784;9.190;2023-03-01T03:48:35;3.90;99.90
10964;DHT22;5534;48.784;9.190;2023-03-01T03:51:01;3.90;99.90
10964;DHT22;5534;48.784;9.190;2023-03-01T03:53:28;3.90;99.90
10964;DHT22;5534;48.784;9.190;2023-03-01T03:55:54;3.90;99.90
10964;DHT22;5534;48.784;9.190;2023-03-01T03:58:22;3.80;99.90
10964;DHT22;5534;48.784;9.190;2023-03-01T04:00:50;3.80;99.90
10964;DHT22;5534;48.784;9.190;2023-03-01T04:03:17;3.80;99.90
10964;DHT22;5534;48.784;9.190;2023-03-01T04:05:44;3.90;99.90
10964;DHT22;5534;48.784;9.190;2023-03-01T04:08:11;3.90;99.90
10964;DHT22;5534;48.784;9.190;2023-03-01T04:10:39;3.90;99.90
10964;DHT22;5534;48.784;9.190;2023-03-01T04:13:06;3.90;99.90
10964;DHT22;5534;48.784;9.190;2023-03-01T04:15:34;4.10;99.90
10964;DHT22;5534;48.784;9.190;2023-03-01T04:18:00;3.90;99.90
10964;DHT22;5534;48.784;9.190;2023-03-01T04:20:29;3.90;99.90
10964;DHT22;5534;48.784;9.190;2023-03-01T04:25:45;3.90;99.90
10964;DHT22;5534;48.784;9.190;2023-03-01T04:28:11;3.90;99.90
10964;DHT22;5534;48.784;9.190;2023-03-01T04:30:38;3.90;99.90
10964;DHT22;5534;48.784;9.190;2023-03-01T04:33:08;3.90;99.90
10964;DHT22;5534;48.784;9.190;2023-03-01T04:35:35;3.90;99.90
10964;DHT22;5534;48.784;9.190;2023-03-01T04:38:02;4.00;99.90
10964;DHT22;5534;48.784;9.190;2023-03-01T04:40:28;4.00;99.90
10964;DHT22;5534;48.784;9.190;2023-03-01T04:42:54;4.00;99.90
10964;DHT22;5534;48.784;9.190;2023-03-01T04:45:20;4.00;99.90
10964;DHT22;5534;48.784;9.190;2023-03-01T04:47:46;4.00;99.90
10964;DHT22;5534;48.784;9.190;2023-03-01T04:50:16;4.00;99.90
10964;DHT22;5534;48.784;9.190;2023-03-01T04:52:43;4.00;99.90
10964;DHT22;5534;48.784;9.190;2023-03-01T04:55:09;4.10;99.90
10964;DHT22;5534;48.784;9.190;2023-03-01T04:57:35;4.00;99.90
10964;DHT22;5534;48.784;9.190;2023-03-01T05:00:01;3.60;99.90
10964;DHT22;5534;48.784;9.190;2023-03-01T05:03:05;3.80;99.90
10964;DHT22;5534;48.784;9.190;2023-03-01T05:05:38;4.00;99.90
10964;DHT22;5534;48.784;9.190;2023-03-01T05:08:06;4.00;99.90
10964;DHT22;5534;48.784;9.190;2023-03-01T05:10:34;4.00;99.90
10964;DHT22;5534;48.784;9.190;2023-03-01T05:13:01;4.00;99.90
10964;DHT22;5534;48.784;9.190;2023-03-01T05:15:29;4.10;99.90
10964;DHT22;5534;48.784;9.190;2023-03-01T05:17:57;4.10;99.90
10964;DHT22;5534;48.784;9.190;2023-03-01T05:20:27;4.00;99.90
10964;DHT22;5534;48.784;9.190;2023-03-01T05:22:57;4.00;99.90
10964;DHT22;5534;48.784;9.190;2023-03-01T05:25:24;4.10;99.90
10964;DHT22;5534;48.784;9.190;2023-03-01T05:27:50;4.30;99.90
10964;DHT22;5534;48.784;9.190;2023-03-01T05:30:16;4.20;99.90
10964;DHT22;5534;48.784;9.190;2023-03-01T05:32:45;4.30;99.90
10964;DHT22;5534;48.784;9.190;2023-03-01T05:35:12;4.30;99.90
10964;DHT22;5534;48.784;9.190;2023-03-01T05:37:49;4.30;99.90
10964;DHT22;5534;48.784;9.190;2023-03-01T05:40:20;4.20;99.90
10964;DHT22;5534;48.784;9.190;2023-03-01T05:42:49;4.20;99.90
10964;DHT22;5534;48.784;9.190;2023-03-01T05:45:16;4.10;99.90
10964;DHT22;5534;48.784;9.190;2023-03-01T05:47:44;4.20;99.90
10964;DHT22;5534;48.784;9.190;2023-03-01T05:50:12;4.20;99.90
10964;DHT22;5534;48.784;9.190;2023-03-01T05:52:38;4.30;99.90
10964;DHT22;5534;48.784;9.190;2023-03-01T05:55:05;4.20;99.90
10964;DHT22;5534;48.784;9.190;2023-03-01T05:57:31;4.30;99.90
10964;DHT22;5534;48.784;9.190;2023-03-01T05:59:56;4.30;99.90
10964;DHT22;5534;48.784;9.190;2023-03-01T06:02:22;4.30;99.90
10964;DHT22;5534;48.784;9.190;2023-03-01T06:04:48;4.20;99.90
10964;DHT22;5534;48.784;9.190;2023-03-01T06:07:14;4.20;99.90
10964;DHT22;5534;48.784;9.190;2023-03-01T06:09:39;4.20;99.90
10964;DHT22;5534;48.784;9.190;2023-03-01T06:12:05;4.20;99.90
10964;DHT22;5534;48.784;9.190;2023-03-01T06:14:31;4.20;99.90
10964;DHT22;5534;48.784;9.190;2023-03-01T06:16:57;4.20;99.90
10964;DHT22;5534;48.784;9.190;2023-03-01T06:19:23;4.10;99.90
10964;DHT22;5534;48.784;9.190;2023-03-01T06:21:49;3.70;99.90
10964;DHT22;5534;48.784;9.190;2023-03-01T06:24:15;3.80;99.90
10964;DHT22;5534;48.784;9.190;2023-03-01T06:26:41;4.10;99.90
10964;DHT22;5534;48.784;9.190;2023-03-01T06:29:07;4.20;99.90
10964;DHT22;5534;48.784;9.190;2023-03-01T06:31:34;4.10;99.90
10964;DHT22;5534;48.784;9.190;2023-03-01T06:34:00;4.10;99.90
10964;DHT22;5534;48.784;9.190;2023-03-01T06:36:25;4.10;99.90
10964;DHT22;5534;48.784;9.190;2023-03-01T06:38:51;4.10;99.90
10964;DHT22;5534;48.784;9.190;2023-03-01T06:41:17;4.00;99.90
10964;DHT22;5534;48.784;9.190;2023-03-01T06:43:43;4.10;99.90
10964;DHT22;5534;48.784;9.190;2023-03-01T06:46:08;4.10;99.90
10964;DHT22;5534;48.784;9.190;2023-03-01T06:48:34;4.20;99.90
10964;DHT22;5534;48.784;9.190;2023-03-01T06:51:00;4.20;99.90
10964;DHT22;5534;48.784;9.190;2023-03-01T06:53:27;4.20;99.90
10964;DHT22;5534;48.784;9.190;2023-03-01T06:55:57;4.20;99.90
10964;DHT22;5534;48.784;9.190;2023-03-01T06:58:23;4.30;99.90
10964;DHT22;5534;48.784;9.190;2023-03-01T07:00:49;4.30;99.90
10964;DHT22;5534;48.784;9.190;2023-03-01T07:03:14;4.10;99.90
10964;DHT22;5534;48.784;9.190;2023-03-01T07:05:40;4.00;99.90
10964;DHT22;5534;48.784;9.190;2023-03-01T07:08:06;4.20;99.90
10964;DHT22;5534;48.784;9.190;2023-03-01T07:10:32;4.30;99.90
10964;DHT22;5534;48.784;9.190;2023-03-01T07:12:58;4.30;99.90
10964;DHT22;5534;48.784;9.190;2023-03-01T07:15:25;4.30;99.90
10964;DHT22;5534;48.784;9.190;2023-03-01T07:17:51;4.20;99.90
10964;DHT22;5534;48.784;9.190;2023-03-01T07:20:21;4.00;99.90
10964;DHT22;5534;48.784;9.190;2023-03-01T07:22:54;4.00;99.90
10964;DHT22;5534;48.784;9.190;2023-03-01T07:25:20;4.10;99.90
10964;DHT22;5534;48.784;9.190;2023-03-01T07:27:53;4.10;99.90
10964;DHT22;5534;48.784;9.190;2023-03-01T07:30:20;4.20;99.90
10964;DHT22;5534;48.784;9.190;2023-03-01T07:32:46;4.20;99.90
10964;DHT22;5534;48.784;9.190;2023-03-01T07:35:12;4.20;99.90
10964;DHT22;5534;48.784;9.190;2023-03-01T07:37:38;4.10;99.90
10964;DHT22;5534;48.784;9.190;2023-03-01T07:40:04;4.00;99.90
10964;DHT22;5534;48.784;9.190;2023-03-01T07:42:30;4.10;99.90
10964;DHT22;5534;48.784;9.190;2023-03-01T07:44:56;4.10;99.90
10964;DHT22;5534;48.784;9.190;2023-03-01T07:47:21;4.10;99.90
10964;DHT22;5534;48.784;9.190;2023-03-01T07:49:47;4.00;99.90
10964;DHT22;5534;48.784;9.190;2023-03-01T07:52:13;4.10;99.90
10964;DHT22;5534;48.784;9.190;2023-03-01T07:54:39;4.00;99.90
10964;DHT22;5534;48.784;9.190;2023-03-01T07:57:04;4.10;99.90
10964;DHT22;5534;48.784;9.190;2023-03-01T07:59:30;4.20;99.90
10964;DHT22;5534;48.784;9.190;2023-03-01T08:01:57;4.20;99.90
10964;DHT22;5534;48.784;9.190;2023-03-01T08:04:23;4.20;99.90
10964;DHT22;5534;48.784;9.190;2023-03-01T08:06:51;4.10;99.90
10964;DHT22;5534;48.784;9.190;2023-03-01T08:09:16;4.00;99.90
10964;DHT22;5534;48.784;9.190;2023-03-01T08:11:42;4.10;99.90
10964;DHT22;5534;48.784;9.190;2023-03-01T08:14:08;4.00;99.90
10964;DHT22;5534;48.784;9.190;2023-03-01T08:16:34;4.00;99.90
10964;DHT22;5534;48.784;9.190;2023-03-01T08:19:08;4.10;99.90
10964;DHT22;5534;48.784;9.190;2023-03-01T08:21:34;4.20;99.90
10964;DHT22;5534;48.784;9.190;2023-03-01T08:24:04;4.30;99.90
10964;DHT22;5534;48.784;9.190;2023-03-01T08:26:32;4.30;99.90
10964;DHT22;5534;48.784;9.190;2023-03-01T08:29:00;4.30;99.90
10964;DHT22;5534;48.784;9.190;2023-03-01T08:31:34;4.30;99.90
10964;DHT22;5534;48.784;9.190;2023-03-01T08:34:06;4.20;99.90
10964;DHT22;5534;48.784;9.190;2023-03-01T08:36:36;4.20;99.90
10964;DHT22;5534;48.784;9.190;2023-03-01T08:39:03;4.10;99.90
10964;DHT22;5534;48.784;9.190;2023-03-01T08:41:29;4.00;99.90
10964;DHT22;5534;48.784;9.190;2023-03-01T08:43:56;4.00;99.90
10964;DHT22;5534;48.784;9.190;2023-03-01T08:46:32;4.10;99.90
10964;DHT22;5534;48.784;9.190;2023-03-01T08:48:58;4.10;99.90
10964;DHT22;5534;48.784;9.190;2023-03-01T08:51:25;4.10;99.90
10964;DHT22;5534;48.784;9.190;2023-03-01T08:53:51;4.20;99.90
10964;DHT22;5534;48.784;9.190;2023-03-01T08:56:20;4.30;99.90
10964;DHT22;5534;48.784;9.190;2023-03-01T08:58:47;4.40;99.90
10964;DHT22;5534;48.784;9.190;2023-03-01T09:01:17;4.40;99.90
10964;DHT22;5534;48.784;9.190;2023-03-01T09:03:44;4.30;99.90
10964;DHT22;5534;48.784;9.190;2023-03-01T09:06:14;4.30;99.90
10964;DHT22;5534;48.784;9.190;2023-03-01T09:08:42;4.40;99.90
10964;DHT22;5534;48.784;9.190;2023-03-01T09:11:09;4.30;99.90
10964;DHT22;5534;48.784;9.190;2023-03-01T09:13:36;4.30;99.90
10964;DHT22;5534;48.784;9.190;2023-03-01T09:16:03;4.40;99.90
10964;DHT22;5534;48.784;9.190;2023-03-01T09:18:30;4.50;99.90
10964;DHT22;5534;48.784;9.190;2023-03-01T09:21:04;4.60;99.90
10964;DHT22;5534;48.784;9.190;2023-03-01T09:23:37;4.70;99.90
10964;DHT22;5534;48.784;9.190;2023-03-01T09:26:05;4.70;99.90
10964;DHT22;5534;48.784;9.190;2023-03-01T09:28:31;4.80;99.90
10964;DHT22;5534;48.784;9.190;2023-03-01T09:30:59;5.00;99.90
10964;DHT22;5534;48.784;9.190;2023-03-01T09:33:25;4.90;99.90
10964;DHT22;5534;48.784;9.190;2023-03-01T09:35:56;5.00;99.90
10964;DHT22;5534;48.784;9.190;2023-03-01T09:38:22;5.00;99.90
10964;DHT22;5534;48.784;9.190;2023-03-01T09:40:48;5.00;99.90
10964;DHT22;5534;48.784;9.190;2023-03-01T09:45:55;5.10;99.90
10964;DHT22;5534;48.784;9.190;2023-03-01T09:48:26;5.20;99.90
10964;DHT22;5534;48.784;9.190;2023-03-01T09:50:52;5.30;99.90
10964;DHT22;5534;48.784;9.190;2023-03-01T09:53:24;5.30;99.90
10964;DHT22;5534;48.784;9.190;2023-03-01T09:56:24;5.50;99.90
10964;DHT22;5534;48.784;9.190;2023-03-01T10:07:05;5.90;99.90
10964;DHT22;5534;48.784;9.190;2023-03-01T10:09:35;6.10;99.90
10964;DHT22;5534;48.784;9.190;2023-03-01T10:12:02;6.30;99.90
10964;DHT22;5534;48.784;9.190;2023-03-01T10:22:40;6.40;99.90
10964;DHT22;5534;48.784;9.190;2023-03-01T10:25:08;6.60;99.90
10964;DHT22;5534;48.784;9.190;2023-03-01T10:27:51;6.80;99.90
10964;DHT22;5534;48.784;9.190;2023-03-01T10:30:34;7.00;99.90
10964;DHT22;5534;48.784;9.190;2023-03-01T10:33:01;7.00;99.90
10964;DHT22;5534;48.784;9.190;2023-03-01T10:35:29;7.00;99.90
10964;DHT22;5534;48.784;9.190;2023-03-01T10:38:02;7.00;99.90
10964;DHT22;5534;48.784;9.190;2023-03-01T10:40:29;7.10;99.90
10964;DHT22;5534;48.784;9.190;2023-03-01T10:42:58;7.00;99.90
10964;DHT22;5534;48.784;9.190;2023-03-01T10:48:23;7.40;99.90
10964;DHT22;5534;48.784;9.190;2023-03-01T10:53:35;7.60;99.90
10964;DHT22;5534;48.784;9.190;2023-03-01T10:56:13;7.40;99.90
10964;DHT22;5534;48.784;9.190;2023-03-01T11:01:28;7.40;99.90
10964;DHT22;5534;48.784;9.190;2023-03-01T11:04:14;7.30;99.90
10964;DHT22;5534;48.784;9.190;2023-03-01T11:06:41;7.60;99.90
10964;DHT22;5534;48.784;9.190;2023-03-01T11:09:22;7.70;99.90
10964;DHT22;5534;48.784;9.190;2023-03-01T11:11:57;7.90;99.90
10964;DHT22;5534;48.784;9.190;2023-03-01T11:14:31;8.00;99.90
10964;DHT22;5534;48.784;9.190;2023-03-01T11:19:36;8.10;99.90
10964;DHT22;5534;48.784;9.190;2023-03-01T11:22:07;8.00;99.90
10964;DHT22;5534;48.784;9.190;2023-03-01T11:24:57;8.10;99.90
10964;DHT22;5534;48.784;9.190;2023-03-01T11:27:32;8.10;99.90
10964;DHT22;5534;48.784;9.190;2023-03-01T11:30:07;8.10;99.90
10964;DHT22;5534;48.784;9.190;2023-03-01T11:33:07;8.10;99.90
10964;DHT22;5534;48.784;9.190;2023-03-01T11:38:41;8.00;99.90
10964;DHT22;5534;48.784;9.190;2023-03-01T11:41:19;8.30;99.90
10964;DHT22;5534;48.784;9.190;2023-03-01T11:44:16;8.60;99.90
10964;DHT22;5534;48.784;9.190;2023-03-01T12:07:05;9.20;99.90
10964;DHT22;5534;48.784;9.190;2023-03-01T12:21:14;9.50;99.90
10964;DHT22;5534;48.784;9.190;2023-03-01T12:29:31;9.80;99.90
10964;DHT22;5534;48.784;9.190;2023-03-01T12:49:08;9.60;99.80
10964;DHT22;5534;48.784;9.190;2023-03-01T12:51:37;9.60;99.90
10964;DHT22;5534;48.784;9.190;2023-03-01T12:54:15;9.70;99.90
10964;DHT22;5534;48.784;9.190;2023-03-01T12:56:42;9.70;99.90
10964;DHT22;5534;48.784;9.190;2023-03-01T13:02:24;9.90;99.60
10964;DHT22;5534;48.784;9.190;2023-03-01T13:05:23;9.70;99.60
10964;DHT22;5534;48.784;9.190;2023-03-01T13:07:53;9.60;99.90
10964;DHT22;5534;48.784;9.190;2023-03-01T13:13:02;9.80;99.60
10964;DHT22;5534;48.784;9.190;2023-03-01T13:15:33;9.80;99.60
10964;DHT22;5534;48.784;9.190;2023-03-01T13:18:04;9.80;99.90
10964;DHT22;5534;48.784;9.190;2023-03-01T13:20:51;9.90;99.70
10964;DHT22;5534;48.784;9.190;2023-03-01T13:28:50;9.90;99.30
10964;DHT22;5534;48.784;9.190;2023-03-01T13:33:56;10.30;99.30
10964;DHT22;5534;48.784;9.190;2023-03-01T13:38:57;10.40;98.80
10964;DHT22;5534;48.784;9.190;2023-03-01T13:47:13;10.20;98.80
10964;DHT22;5534;48.784;9.190;2023-03-01T13:50:16;10.10;99.00
10964;DHT22;5534;48.784;9.190;2023-03-01T13:52:48;9.90;99.50
10964;DHT22;5534;48.784;9.190;2023-03-01T13:55:36;9.80;99.70
10964;DHT22;5534;48.784;9.190;2023-03-01T13:58:14;9.90;99.90
10964;DHT22;5534;48.784;9.190;2023-03-01T14:00:40;9.90;99.70
10964;DHT22;5534;48.784;9.190;2023-03-01T14:03:18;10.00;99.90
10964;DHT22;5534;48.784;9.190;2023-03-01T14:08:26;9.80;99.90
10964;DHT22;5534;48.784;9.190;2023-03-01T14:21:42;9.60;99.90
10964;DHT22;5534;48.784;9.190;2023-03-01T14:24:17;9.50;99.90
10964;DHT22;5534;48.784;9.190;2023-03-01T14:26:44;9.50;99.90
10964;DHT22;5534;48.784;9.190;2023-03-01T14:29:27;9.40;99.90
10964;DHT22;5534;48.784;9.190;2023-03-01T14:31:53;9.40;99.90
10964;DHT22;5534;48.784;9.190;2023-03-01T14:34:23;9.50;99.90
10964;DHT22;5534;48.784;9.190;2023-03-01T14:36:50;9.50;99.90
10964;DHT22;5534;48.784;9.190;2023-03-01T14:39:23;9.50;99.90
10964;DHT22;5534;48.784;9.190;2023-03-01T14:41:49;9.50;99.90
10964;DHT22;5534;48.784;9.190;2023-03-01T14:44:21;9.70;99.90
10964;DHT22;5534;48.784;9.190;2023-03-01T14:46:55;9.60;99.90
10964;DHT22;5534;48.784;9.190;2023-03-01T14:49:28;9.60;99.90
10964;DHT22;5534;48.784;9.190;2023-03-01T14:52:06;9.60;99.90
10964;DHT22;5534;48.784;9.190;2023-03-01T14:54:40;9.60;99.90
10964;DHT22;5534;48.784;9.190;2023-03-01T14:57:29;9.60;99.90
10964;DHT22;5534;48.784;9.190;2023-03-01T14:59:58;9.60;99.90
10964;DHT22;5534;48.784;9.190;2023-03-01T15:02:27;9.60;99.90
10964;DHT22;5534;48.784;9.190;2023-03-01T15:05:02;9.60;99.90
10964;DHT22;5534;48.784;9.190;2023-03-01T15:07:35;9.70;99.90
10964;DHT22;5534;48.784;9.190;2023-03-01T15:10:04;9.60;99.90
10964;DHT22;5534;48.784;9.190;2023-03-01T15:12:38;9.50;99.90
10964;DHT22;5534;48.784;9.190;2023-03-01T15:17:56;9.50;99.90
10964;DHT22;5534;48.784;9.190;2023-03-01T15:20:25;9.40;99.90
10964;DHT22;5534;48.784;9.190;2023-03-01T15:22:56;9.40;99.90
10964;DHT22;5534;48.784;9.190;2023-03-01T15:25:25;9.50;99.90
10964;DHT22;5534;48.784;9.190;2023-03-01T15:27:52;9.50;99.90
10964;DHT22;5534;48.784;9.190;2023-03-01T15:30:22;9.40;99.90
10964;DHT22;5534;48.784;9.190;2023-03-01T15:33:18;9.40;99.90
10964;DHT22;5534;48.784;9.190;2023-03-01T15:35:49;9.30;99.90
10964;DHT22;5534;48.784;9.190;2023-03-01T15:38:25;9.20;99.90
10964;DHT22;5534;48.784;9.190;2023-03-01T15:40:51;9.20;99.90
10964;DHT22;5534;48.784;9.190;2023-03-01T15:43:40;9.20;99.90
10964;DHT22;5534;48.784;9.190;2023-03-01T15:46:20;9.20;99.90
10964;DHT22;5534;48.784;9.190;2023-03-01T15:48:50;9.20;99.90
10964;DHT22;5534;48.784;9.190;2023-03-01T15:51:27;9.20;99.90
10964;DHT22;5534;48.784;9.190;2023-03-01T15:53:54;9.20;99.90
10964;DHT22;5534;48.784;9.190;2023-03-01T15:56:20;9.10;99.90
10964;DHT22;5534;48.784;9.190;2023-03-01T15:58:46;9.10;99.90
10964;DHT22;5534;48.784;9.190;2023-03-01T16:01:16;9.00;99.90
10964;DHT22;5534;48.784;9.190;2023-03-01T16:03:43;9.00;99.90
10964;DHT22;5534;48.784;9.190;2023-03-01T16:06:10;8.90;99.90
10964;DHT22;5534;48.784;9.190;2023-03-01T16:08:39;9.00;99.90
10964;DHT22;5534;48.784;9.190;2023-03-01T16:11:11;9.00;99.90
10964;DHT22;5534;48.784;9.190;2023-03-01T16:13:39;9.00;99.90
10964;DHT22;5534;48.784;9.190;2023-03-01T16:16:05;9.00;99.90
10964;DHT22;5534;48.784;9.190;2023-03-01T16:18:30;8.90;99.90
10964;DHT22;5534;48.784;9.190;2023-03-01T16:20:56;8.90;99.90
10964;DHT22;5534;48.784;9.190;2023-03-01T16:23:22;8.90;99.90
10964;DHT22;5534;48.784;9.190;2023-03-01T16:25:50;8.80;99.90
10964;DHT22;5534;48.784;9.190;2023-03-01T16:28:16;8.90;99.90
10964;DHT22;5534;48.784;9.190;2023-03-01T16:30:46;8.90;99.90
10964;DHT22;5534;48.784;9.190;2023-03-01T16:33:12;8.80;99.90
10964;DHT22;5534;48.784;9.190;2023-03-01T16:35:40;8.80;99.90
10964;DHT22;5534;48.784;9.190;2023-03-01T16:38:06;8.80;99.90
10964;DHT22;5534;48.784;9.190;2023-03-01T16:40:32;8.70;99.90
10964;DHT22;5534;48.784;9.190;2023-03-01T16:42:58;8.70;99.90
10964;DHT22;5534;48.784;9.190;2023-03-01T16:45:32;8.70;99.90
10964;DHT22;5534;48.784;9.190;2023-03-01T16:47:58;8.70;99.90
10964;DHT22;5534;48.784;9.190;2023-03-01T16:50:24;8.60;99.90
10964;DHT22;5534;48.784;9.190;2023-03-01T16:52:49;8.60;99.90
10964;DHT22;5534;48.784;9.190;2023-03-01T16:55:15;8.60;99.90
10964;DHT22;5534;48.784;9.190;2023-03-01T16:57:41;8.60;99.90
10964;DHT22;5534;48.784;9.190;2023-03-01T17:00:14;8.50;99.90
10964;DHT22;5534;48.784;9.190;2023-03-01T17:02:41;8.60;99.90
10964;DHT22;5534;48.784;9.190;2023-03-01T17:05:07;8.50;99.90
10964;DHT22;5534;48.784;9.190;2023-03-01T17:07:34;8.50;99.90
10964;DHT22;5534;48.784;9.190;2023-03-01T17:10:01;8.40;99.90
10964;DHT22;5534;48.784;9.190;2023-03-01T17:12:27;8.30;99.90
10964;DHT22;5534;48.784;9.190;2023-03-01T17:14:53;8.40;99.90
10964;DHT22;5534;48.784;9.190;2023-03-01T17:17:19;8.30;99.90
10964;DHT22;5534;48.784;9.190;2023-03-01T17:19:44;8.40;99.90
10964;DHT22;5534;48.784;9.190;2023-03-01T17:22:11;8.40;99.90
10964;DHT22;5534;48.784;9.190;2023-03-01T17:24:40;8.30;99.90
10964;DHT22;5534;48.784;9.190;2023-03-01T17:27:06;8.30;99.90
10964;DHT22;5534;48.784;9.190;2023-03-01T17:29:32;8.20;99.90
10964;DHT22;5534;48.784;9.190;2023-03-01T17:31:58;8.20;99.90
10964;DHT22;5534;48.784;9.190;2023-03-01T17:34:24;8.20;99.90
10964;DHT22;5534;48.784;9.190;2023-03-01T17:36:50;8.20;99.90
10964;DHT22;5534;48.784;9.190;2023-03-01T17:39:17;8.20;99.90
10964;DHT22;5534;48.784;9.190;2023-03-01T17:41:51;8.30;99.90
10964;DHT22;5534;48.784;9.190;2023-03-01T17:44:17;8.20;99.90
10964;DHT22;5534;48.784;9.190;2023-03-01T17:46:43;8.20;99.90
10964;DHT22;5534;48.784;9.190;2023-03-01T17:49:10;8.20;99.90
10964;DHT22;5534;48.784;9.190;2023-03-01T17:51:36;8.20;99.90
10964;DHT22;5534;48.784;9.190;2023-03-01T17:54:02;8.20;99.90
10964;DHT22;5534;48.784;9.190;2023-03-01T17:56:28;8.10;99.90
10964;DHT22;5534;48.784;9.190;2023-03-01T17:58:54;8.00;99.90
10964;DHT22;5534;48.784;9.190;2023-03-01T18:01:21;8.00;99.90
10964;DHT22;5534;48.784;9.190;2023-03-01T18:03:51;7.90;99.90
10964;DHT22;5534;48.784;9.190;2023-03-01T18:06:27;7.90;99.90
10964;DHT22;5534;48.784;9.190;2023-03-01T18:08:54;7.70;99.90
10964;DHT22;5534;48.784;9.190;2023-03-01T18:11:23;7.50;99.90
10964;DHT22;5534;48.784;9.190;2023-03-01T18:13:55;7.50;99.90
10964;DHT22;5534;48.784;9.190;2023-03-01T18:16:21;7.50;99.90
10964;DHT22;5534;48.784;9.190;2023-03-01T18:18:52;7.60;99.90
10964;DHT22;5534;48.784;9.190;2023-03-01T18:21:18;7.50;99.90
10964;DHT22;5534;48.784;9.190;2023-03-01T18:23:46;7.60;99.90
10964;DHT22;5534;48.784;9.190;2023-03-01T18:26:14;7.50;99.90
10964;DHT22;5534;48.784;9.190;2023-03-01T18:28:43;7.60;99.90
10964;DHT22;5534;48.784;9.190;2023-03-01T18:31:12;7.40;99.90
10964;DHT22;5534;48.784;9.190;2023-03-01T18:33:39;7.30;99.90
10964;DHT22;5534;48.784;9.190;2023-03-01T18:36:06;7.30;99.90
10964;DHT22;5534;48.784;9.190;2023-03-01T18:38:40;7.40;99.90